createdAt,value
2023-04-02T00:00:49.061Z,8.18
2023-04-02T00:01:49.097Z,8.16
2023-04-02T00:02:50.066Z,8.16
2023-04-02T00:03:49.048Z,8.15
2023-04-02T00:04:49.070Z,8.14
2023-04-02T00:05:49.012Z,8.13
2023-04-02T00:06:48.982Z,8.12
2023-04-02T00:07:49.896Z,8.11
2023-04-02T00:08:49.078Z,8.11
2023-04-02T00:09:48.984Z,8.11
2023-04-02T00:10:48.925Z,8.12
2023-04-02T00:11:48.935Z,8.13
2023-04-02T00:12:48.909Z,8.14
2023-04-02T00:13:49.831Z,8.16
2023-04-02T00:14:48.883Z,8.17
2023-04-02T00:15:48.893Z,8.18
2023-04-02T00:16:48.885Z,8.20
2023-04-02T00:17:48.858Z,8.21
2023-04-02T00:18:48.855Z,8.22
2023-04-02T00:19:49.806Z,8.23
2023-04-02T00:20:48.804Z,8.25
2023-04-02T00:21:48.827Z,8.26
2023-04-02T00:22:48.773Z,8.27
2023-04-02T00:23:48.775Z,8.28
2023-04-02T00:24:48.745Z,8.29
2023-04-02T00:25:49.730Z,8.29
2023-04-02T00:26:48.799Z,8.29
2023-04-02T00:27:48.727Z,8.29
2023-04-02T00:28:48.750Z,8.29
2023-04-02T00:29:48.785Z,8.30
2023-04-02T00:30:48.687Z,8.30
2023-04-02T00:31:49.758Z,8.31
2023-04-02T00:32:48.685Z,8.32
2023-04-02T00:33:48.690Z,8.33
2023-04-02T00:34:48.690Z,8.33
2023-04-02T00:35:48.699Z,8.34
2023-04-02T00:36:49.607Z,8.34
2023-04-02T00:37:48.564Z,8.34
2023-04-02T00:38:48.881Z,8.34
2023-04-02T00:39:48.599Z,8.34
2023-04-02T00:40:48.564Z,8.34
2023-04-02T00:41:49.560Z,8.34
2023-04-02T00:42:48.508Z,8.35
2023-04-02T00:43:48.512Z,8.35
2023-04-02T00:44:48.483Z,8.35
2023-04-02T00:45:48.670Z,8.35
2023-04-02T00:46:49.474Z,8.34
2023-04-02T00:47:48.489Z,8.34
2023-04-02T00:48:48.476Z,8.34
2023-04-02T00:49:48.436Z,8.33
2023-04-02T00:50:48.429Z,8.33
2023-04-02T00:51:48.412Z,8.32
2023-04-02T00:52:49.406Z,8.32
2023-04-02T00:53:48.385Z,8.31
2023-04-02T00:54:48.375Z,8.31
2023-04-02T00:55:48.382Z,8.30
2023-04-02T00:56:48.389Z,8.30
2023-04-02T00:57:48.334Z,8.29
2023-04-02T00:58:49.273Z,8.29
2023-04-02T00:59:48.372Z,8.28
2023-04-02T01:00:48.309Z,8.28
2023-04-02T01:01:48.373Z,8.28
2023-04-02T01:02:48.327Z,8.28
2023-04-02T01:03:49.194Z,8.27
2023-04-02T01:04:48.246Z,8.27
2023-04-02T01:05:48.290Z,8.27
2023-04-02T01:06:48.311Z,8.27
2023-04-02T01:07:48.208Z,8.28
2023-04-02T01:08:48.292Z,8.28
2023-04-02T01:09:49.131Z,8.30
2023-04-02T01:10:48.175Z,8.30
2023-04-02T01:11:48.187Z,8.31
2023-04-02T01:12:48.186Z,8.32
2023-04-02T01:13:48.148Z,8.33
2023-04-02T01:14:49.041Z,8.33
2023-04-02T01:15:48.207Z,8.33
2023-04-02T01:16:48.143Z,8.33
2023-04-02T01:17:48.162Z,8.34
2023-04-02T01:18:48.072Z,8.34
2023-04-02T01:19:48.747Z,8.34
2023-04-02T01:20:48.976Z,8.35
2023-04-02T01:21:48.044Z,8.35
2023-04-02T01:22:48.089Z,8.36
2023-04-02T01:23:48.173Z,8.36
2023-04-02T01:24:47.995Z,8.37
2023-04-02T01:25:48.931Z,8.38
2023-04-02T01:26:48.001Z,8.38
2023-04-02T01:27:47.968Z,8.38
2023-04-02T01:28:47.915Z,8.38
2023-04-02T01:29:47.955Z,8.37
2023-04-02T01:30:47.913Z,8.36
2023-04-02T01:31:49.006Z,8.35
2023-04-02T01:32:47.932Z,8.34
2023-04-02T01:33:47.915Z,8.33
2023-04-02T01:34:47.860Z,8.32
2023-04-02T01:35:47.882Z,8.31
2023-04-02T01:36:48.761Z,8.30
2023-04-02T01:37:47.917Z,8.29
2023-04-02T01:38:47.812Z,8.27
2023-04-02T01:39:47.761Z,8.26
2023-04-02T01:40:47.785Z,8.25
2023-04-02T01:41:47.767Z,8.24
2023-04-02T01:42:48.667Z,8.23
2023-04-02T01:43:47.773Z,8.22
2023-04-02T01:44:47.773Z,8.22
2023-04-02T01:45:47.726Z,8.21
2023-04-02T01:46:47.813Z,8.21
2023-04-02T01:47:48.651Z,8.21
2023-04-02T01:48:47.722Z,8.21
2023-04-02T01:49:47.704Z,8.21
2023-04-02T01:50:47.680Z,8.21
2023-04-02T01:51:47.628Z,8.20
2023-04-02T01:52:47.614Z,8.20
2023-04-02T01:53:48.551Z,8.21
2023-04-02T01:54:47.629Z,8.21
2023-04-02T01:55:47.572Z,8.22
2023-04-02T01:56:47.583Z,8.22
2023-04-02T01:57:47.574Z,8.23
2023-04-02T01:58:47.555Z,8.23
2023-04-02T01:59:48.486Z,8.24
2023-04-02T02:00:47.623Z,8.25
2023-04-02T02:01:47.536Z,8.25
2023-04-02T02:02:47.514Z,8.25
2023-04-02T02:03:47.545Z,8.25
2023-04-02T02:04:47.498Z,8.25
2023-04-02T02:05:48.446Z,8.24
2023-04-02T02:06:47.449Z,8.24
2023-04-02T02:07:47.453Z,8.24
2023-04-02T02:08:47.445Z,8.24
2023-04-02T02:09:47.427Z,8.24
2023-04-02T02:10:47.445Z,8.23
2023-04-02T02:11:48.332Z,8.22
2023-04-02T02:12:47.394Z,8.21
2023-04-02T02:13:47.383Z,8.20
2023-04-02T02:14:47.378Z,8.18
2023-04-02T02:15:47.369Z,8.17
2023-04-02T02:16:47.370Z,8.16
2023-04-02T02:17:48.243Z,8.16
2023-04-02T02:18:47.313Z,8.16
2023-04-02T02:19:47.311Z,8.16
2023-04-02T02:20:47.288Z,8.16
2023-04-02T02:21:47.248Z,8.16
2023-04-02T02:22:47.255Z,8.16
2023-04-02T02:23:48.163Z,8.15
2023-04-02T02:24:47.221Z,8.15
2023-04-02T02:25:47.225Z,8.14
2023-04-02T02:26:47.214Z,8.13
2023-04-02T02:27:47.217Z,8.11
2023-04-02T02:28:47.198Z,8.09
2023-04-02T02:29:48.081Z,8.07
2023-04-02T02:30:47.221Z,8.05
2023-04-02T02:31:47.150Z,8.03
2023-04-02T02:32:47.165Z,8.01
2023-04-02T02:33:47.119Z,7.99
2023-04-02T02:34:48.095Z,7.98
2023-04-02T02:35:47.135Z,7.96
2023-04-02T02:36:47.110Z,7.94
2023-04-02T02:37:47.043Z,7.93
2023-04-02T02:38:47.030Z,7.91
2023-04-02T02:39:47.049Z,7.90
2023-04-02T02:40:47.955Z,7.88
2023-04-02T02:41:47.020Z,7.88
2023-04-02T02:42:47.053Z,7.87
2023-04-02T02:43:47.119Z,7.87
2023-04-02T02:44:46.953Z,7.87
2023-04-02T02:45:47.044Z,7.87
2023-04-02T02:46:47.902Z,7.87
2023-04-02T02:47:46.925Z,7.87
2023-04-02T02:48:46.950Z,7.88
2023-04-02T02:49:46.901Z,7.89
2023-04-02T02:50:46.928Z,7.90
2023-04-02T02:51:46.901Z,7.91
2023-04-02T02:52:47.861Z,7.92
2023-04-02T02:53:47.820Z,7.93
2023-04-02T02:54:46.861Z,7.94
2023-04-02T02:55:46.886Z,7.95
2023-04-02T02:56:46.880Z,7.95
2023-04-02T02:57:46.827Z,7.96
2023-04-02T02:58:47.723Z,7.97
2023-04-02T02:59:46.794Z,7.97
2023-04-02T03:00:46.773Z,7.98
2023-04-02T03:01:46.835Z,7.98
2023-04-02T03:02:46.896Z,7.99
2023-04-02T03:03:46.984Z,8.00
2023-04-02T03:04:47.622Z,8.00
2023-04-02T03:05:46.720Z,8.01
2023-04-02T03:06:46.683Z,8.02
2023-04-02T03:07:46.709Z,8.02
2023-04-02T03:08:46.649Z,8.03
2023-04-02T03:09:46.649Z,8.03
2023-04-02T03:10:47.615Z,8.04
2023-04-02T03:11:46.639Z,8.04
2023-04-02T03:12:46.620Z,8.04
2023-04-02T03:13:46.609Z,8.04
2023-04-02T03:14:46.614Z,8.05
2023-04-02T03:15:47.543Z,8.05
2023-04-02T03:16:46.575Z,8.06
2023-04-02T03:17:46.601Z,8.06
2023-04-02T03:18:46.543Z,8.06
2023-04-02T03:19:46.563Z,8.06
2023-04-02T03:20:47.420Z,8.06
2023-04-02T03:21:46.499Z,8.06
2023-04-02T03:22:46.473Z,8.06
2023-04-02T03:23:46.469Z,8.07
2023-04-02T03:24:46.492Z,8.08
2023-04-02T03:25:46.453Z,8.08
2023-04-02T03:26:47.374Z,8.09
2023-04-02T03:27:46.433Z,8.09
2023-04-02T03:28:46.400Z,8.10
2023-04-02T03:29:46.418Z,8.10
2023-04-02T03:30:46.385Z,8.10
2023-04-02T03:31:47.467Z,8.10
2023-04-02T03:32:46.431Z,8.10
2023-04-02T03:33:46.381Z,8.09
2023-04-02T03:34:46.313Z,8.09
2023-04-02T03:35:46.338Z,8.09
2023-04-02T03:36:46.303Z,8.09
2023-04-02T03:37:47.270Z,8.09
2023-04-02T03:38:46.286Z,8.09
2023-04-02T03:39:46.256Z,8.08
2023-04-02T03:40:46.277Z,8.08
2023-04-02T03:41:46.269Z,8.07
2023-04-02T03:42:46.265Z,8.07
2023-04-02T03:43:47.152Z,8.07
2023-04-02T03:44:46.192Z,8.07
2023-04-02T03:45:46.224Z,8.07
2023-04-02T03:46:46.198Z,8.07
2023-04-02T03:47:46.212Z,8.08
2023-04-02T03:48:47.093Z,8.09
2023-04-02T03:49:46.124Z,8.09
2023-04-02T03:50:46.152Z,8.10
2023-04-02T03:51:46.114Z,8.11
2023-04-02T03:52:46.100Z,8.11
2023-04-02T03:53:46.100Z,8.11
2023-04-02T03:54:53.943Z,8.12
2023-04-02T03:55:47.602Z,8.12
2023-04-02T03:56:46.035Z,8.12
2023-04-02T03:57:46.062Z,8.12
2023-04-02T03:58:46.037Z,8.12
2023-04-02T03:59:47.318Z,8.13
2023-04-02T04:00:46.969Z,8.13
2023-04-02T04:01:46.005Z,8.13
2023-04-02T04:02:46.014Z,8.13
2023-04-02T04:03:46.008Z,8.12
2023-04-02T04:04:46.042Z,8.12
2023-04-02T04:05:46.845Z,8.12
2023-04-02T04:06:45.904Z,8.11
2023-04-02T04:07:45.934Z,8.10
2023-04-02T04:08:45.891Z,8.09
2023-04-02T04:09:45.871Z,8.08
2023-04-02T04:10:45.893Z,8.08
2023-04-02T04:11:46.841Z,8.07
2023-04-02T04:12:45.870Z,8.07
2023-04-02T04:13:45.836Z,8.07
2023-04-02T04:14:45.842Z,8.07
2023-04-02T04:15:45.800Z,8.07
2023-04-02T04:16:46.765Z,8.07
2023-04-02T04:17:45.839Z,8.07
2023-04-02T04:18:45.777Z,8.07
2023-04-02T04:19:45.836Z,8.07
2023-04-02T04:20:45.730Z,8.07
2023-04-02T04:21:45.735Z,8.07
2023-04-02T04:22:46.662Z,8.06
2023-04-02T04:23:45.746Z,8.06
2023-04-02T04:24:45.725Z,8.06
2023-04-02T04:25:45.673Z,8.06
2023-04-02T04:26:45.715Z,8.07
2023-04-02T04:27:46.570Z,8.07
2023-04-02T04:28:45.657Z,8.08
2023-04-02T04:29:45.674Z,8.09
2023-04-02T04:30:45.721Z,8.09
2023-04-02T04:31:45.619Z,8.10
2023-04-02T04:32:45.615Z,8.10
2023-04-02T04:33:46.580Z,8.10
2023-04-02T04:34:45.583Z,8.10
2023-04-02T04:35:45.664Z,8.10
2023-04-02T04:36:45.596Z,8.10
2023-04-02T04:37:45.943Z,8.10
2023-04-02T04:38:46.612Z,8.10
2023-04-02T04:39:45.606Z,8.10
2023-04-02T04:40:45.491Z,8.10
2023-04-02T04:41:45.481Z,8.10
2023-04-02T04:42:45.470Z,8.09
2023-04-02T04:43:45.465Z,8.09
2023-04-02T04:44:46.367Z,8.09
2023-04-02T04:45:45.539Z,8.10
2023-04-02T04:46:45.419Z,8.10
2023-04-02T04:47:45.477Z,8.11
2023-04-02T04:48:45.366Z,8.12
2023-04-02T04:49:46.328Z,8.12
2023-04-02T04:50:45.415Z,8.13
2023-04-02T04:51:45.366Z,8.13
2023-04-02T04:52:45.342Z,8.12
2023-04-02T04:53:45.369Z,8.11
2023-04-02T04:54:45.300Z,8.11
2023-04-02T04:55:46.306Z,8.10
2023-04-02T04:56:45.302Z,8.09
2023-04-02T04:57:45.285Z,8.09
2023-04-02T04:58:45.293Z,8.09
2023-04-02T04:59:45.247Z,8.09
2023-04-02T05:00:45.226Z,8.10
2023-04-02T05:01:46.172Z,8.10
2023-04-02T05:02:45.249Z,8.12
2023-04-02T05:03:45.208Z,8.13
2023-04-02T05:04:45.246Z,8.14
2023-04-02T05:05:45.160Z,8.15
2023-04-02T05:06:46.087Z,8.17
2023-04-02T05:07:45.189Z,8.18
2023-04-02T05:08:45.141Z,8.19
2023-04-02T05:09:45.154Z,8.21
2023-04-02T05:10:45.132Z,8.22
2023-04-02T05:11:46.075Z,8.24
2023-04-02T05:12:45.121Z,8.25
2023-04-02T05:13:45.062Z,8.27
2023-04-02T05:14:45.082Z,8.28
2023-04-02T05:15:45.052Z,8.29
2023-04-02T05:16:45.984Z,8.31
2023-04-02T05:17:45.058Z,8.32
2023-04-02T05:18:45.010Z,8.33
2023-04-02T05:19:45.047Z,8.33
2023-04-02T05:20:45.031Z,8.34
2023-04-02T05:21:45.921Z,8.35
2023-04-02T05:22:44.986Z,8.36
2023-04-02T05:23:45.023Z,8.37
2023-04-02T05:24:44.937Z,8.37
2023-04-02T05:25:44.927Z,8.37
2023-04-02T05:26:45.872Z,8.38
2023-04-02T05:27:44.875Z,8.38
2023-04-02T05:28:44.903Z,8.38
2023-04-02T05:29:44.892Z,8.39
2023-04-02T05:30:44.877Z,8.40
2023-04-02T05:31:44.946Z,8.41
2023-04-02T05:32:45.807Z,8.42
2023-04-02T05:33:44.879Z,8.43
2023-04-02T05:34:44.929Z,8.44
2023-04-02T05:35:44.821Z,8.45
2023-04-02T05:36:45.738Z,8.47
2023-04-02T05:37:45.752Z,8.47
2023-04-02T05:38:45.777Z,8.48
2023-04-02T05:39:44.740Z,8.48
2023-04-02T05:40:44.726Z,8.48
2023-04-02T05:41:44.764Z,8.49
2023-04-02T05:42:44.693Z,8.50
2023-04-02T05:43:45.633Z,8.51
2023-04-02T05:44:44.664Z,8.52
2023-04-02T05:45:44.708Z,8.53
2023-04-02T05:46:44.757Z,8.55
2023-04-02T05:47:44.836Z,8.57
2023-04-02T05:48:45.654Z,8.59
2023-04-02T05:49:44.629Z,8.61
2023-04-02T05:50:44.612Z,8.63
2023-04-02T05:51:44.681Z,8.65
2023-04-02T05:52:44.581Z,8.66
2023-04-02T05:53:45.508Z,8.67
2023-04-02T05:54:44.588Z,8.69
2023-04-02T05:55:44.545Z,8.70
2023-04-02T05:56:44.549Z,8.71
2023-04-02T05:57:52.833Z,8.72
2023-04-02T05:58:46.097Z,8.73
2023-04-02T05:59:45.456Z,8.75
2023-04-02T06:00:44.493Z,8.76
2023-04-02T06:01:44.521Z,8.78
2023-04-02T06:02:44.482Z,8.80
2023-04-02T06:03:44.512Z,8.81
2023-04-02T06:04:44.453Z,8.82
2023-04-02T06:05:45.342Z,8.84
2023-04-02T06:06:44.399Z,8.86
2023-04-02T06:07:44.374Z,8.89
2023-04-02T06:08:44.472Z,8.91
2023-04-02T06:09:44.365Z,8.93
2023-04-02T06:10:45.220Z,8.94
2023-04-02T06:11:45.324Z,8.95
2023-04-02T06:12:44.367Z,8.95
2023-04-02T06:13:44.337Z,8.95
2023-04-02T06:14:45.232Z,8.96
2023-04-02T06:15:46.523Z,8.99
2023-04-02T06:16:44.361Z,9.02
2023-04-02T06:17:45.319Z,9.04
2023-04-02T06:18:44.262Z,9.06
2023-04-02T06:19:44.216Z,9.07
2023-04-02T06:20:44.269Z,9.08
2023-04-02T06:21:44.221Z,9.08
2023-04-02T06:22:44.196Z,9.08
2023-04-02T06:23:45.118Z,9.07
2023-04-02T06:24:44.234Z,9.07
2023-04-02T06:25:44.142Z,9.07
2023-04-02T06:26:44.170Z,9.09
2023-04-02T06:27:44.163Z,9.14
2023-04-02T06:28:44.166Z,9.21
2023-04-02T06:29:45.042Z,9.30
2023-04-02T06:30:44.147Z,9.39
2023-04-02T06:31:44.131Z,9.48
2023-04-02T06:32:44.127Z,9.56
2023-04-02T06:33:44.045Z,9.63
2023-04-02T06:34:44.086Z,9.69
2023-04-02T06:35:45.024Z,9.73
2023-04-02T06:36:44.019Z,9.76
2023-04-02T06:37:43.991Z,9.79
2023-04-02T06:38:44.005Z,9.84
2023-04-02T06:39:44.017Z,9.88
2023-04-02T06:40:44.879Z,9.93
2023-04-02T06:41:43.941Z,10.00
2023-04-02T06:42:43.971Z,10.09
2023-04-02T06:43:43.915Z,10.18
2023-04-02T06:44:43.987Z,10.26
2023-04-02T06:45:43.957Z,10.34
2023-04-02T06:46:44.890Z,10.40
2023-04-02T06:47:43.958Z,10.46
2023-04-02T06:48:43.898Z,10.52
2023-04-02T06:49:43.866Z,10.64
2023-04-02T06:50:43.858Z,10.80
2023-04-02T06:51:43.833Z,10.94
2023-04-02T06:52:44.780Z,11.07
2023-04-02T06:53:43.835Z,11.18
2023-04-02T06:54:43.831Z,11.26
2023-04-02T06:55:43.801Z,11.33
2023-04-02T06:56:43.779Z,11.39
2023-04-02T06:57:44.726Z,11.42
2023-04-02T06:58:43.778Z,11.46
2023-04-02T06:59:43.725Z,11.49
2023-04-02T07:00:43.730Z,11.49
2023-04-02T07:01:43.789Z,11.49
2023-04-02T07:02:44.678Z,11.48
2023-04-02T07:03:43.680Z,11.46
2023-04-02T07:04:43.720Z,11.44
2023-04-02T07:05:43.675Z,11.42
2023-04-02T07:06:43.675Z,11.40
2023-04-02T07:07:44.655Z,11.39
2023-04-02T07:08:43.609Z,11.40
2023-04-02T07:09:43.900Z,11.43
2023-04-02T07:10:43.622Z,11.47
2023-04-02T07:11:43.632Z,11.52
2023-04-02T07:12:43.544Z,11.56
2023-04-02T07:13:44.566Z,11.57
2023-04-02T07:14:43.539Z,11.59
2023-04-02T07:15:43.580Z,11.61
2023-04-02T07:16:43.541Z,11.60
2023-04-02T07:17:43.570Z,11.58
2023-04-02T07:18:44.474Z,11.57
2023-04-02T07:19:43.553Z,11.58
2023-04-02T07:20:43.480Z,11.60
2023-04-02T07:21:43.475Z,11.65
2023-04-02T07:22:43.465Z,11.69
2023-04-02T07:23:44.453Z,11.73
2023-04-02T07:24:43.540Z,11.76
2023-04-02T07:25:43.434Z,11.79
2023-04-02T07:26:43.505Z,11.82
2023-04-02T07:27:43.443Z,11.87
2023-04-02T07:28:44.398Z,11.91
2023-04-02T07:29:43.363Z,11.97
2023-04-02T07:30:43.354Z,12.04
2023-04-02T07:31:43.413Z,12.10
2023-04-02T07:32:43.361Z,12.14
2023-04-02T07:33:44.261Z,12.18
2023-04-02T07:34:43.299Z,12.22
2023-04-02T07:35:43.337Z,12.27
2023-04-02T07:36:43.262Z,12.34
2023-04-02T07:37:43.252Z,12.42
2023-04-02T07:38:43.268Z,12.47
2023-04-02T07:39:44.268Z,12.49
2023-04-02T07:40:43.229Z,12.49
2023-04-02T07:41:43.188Z,12.50
2023-04-02T07:42:43.213Z,12.52
2023-04-02T07:43:43.203Z,12.53
2023-04-02T07:44:44.093Z,12.54
2023-04-02T07:45:43.160Z,12.58
2023-04-02T07:46:43.199Z,12.68
2023-04-02T07:47:43.172Z,12.81
2023-04-02T07:48:43.141Z,12.91
2023-04-02T07:49:43.081Z,12.95
2023-04-02T07:50:44.077Z,12.98
2023-04-02T07:51:43.082Z,12.99
2023-04-02T07:52:43.098Z,13.00
2023-04-02T07:53:43.063Z,13.00
2023-04-02T07:54:43.054Z,13.02
2023-04-02T07:55:43.148Z,13.04
2023-04-02T07:56:43.940Z,13.06
2023-04-02T07:57:45.645Z,13.08
2023-04-02T07:58:43.000Z,13.11
2023-04-02T07:59:43.917Z,13.14
2023-04-02T08:00:42.966Z,13.17
2023-04-02T08:01:43.204Z,13.21
2023-04-02T08:02:43.956Z,13.28
2023-04-02T08:03:43.105Z,13.35
2023-04-02T08:04:42.897Z,13.42
2023-04-02T08:05:42.942Z,13.49
2023-04-02T08:06:42.867Z,13.54
2023-04-02T08:07:43.808Z,13.58
2023-04-02T08:08:42.873Z,13.60
2023-04-02T08:09:42.834Z,13.61
2023-04-02T08:10:42.870Z,13.61
2023-04-02T08:11:42.827Z,13.60
2023-04-02T08:12:42.820Z,13.60
2023-04-02T08:13:43.798Z,13.60
2023-04-02T08:14:42.792Z,13.61
2023-04-02T08:15:42.773Z,13.62
2023-04-02T08:16:42.806Z,13.65
2023-04-02T08:17:42.767Z,13.69
2023-04-02T08:18:42.739Z,13.72
2023-04-02T08:19:54.060Z,13.74
2023-04-02T08:20:44.345Z,13.74
2023-04-02T08:21:42.681Z,13.73
2023-04-02T08:22:42.684Z,13.74
2023-04-02T08:23:42.683Z,13.77
2023-04-02T08:24:43.671Z,13.81
2023-04-02T08:25:42.651Z,13.84
2023-04-02T08:26:43.956Z,13.87
2023-04-02T08:27:42.638Z,13.89
2023-04-02T08:28:42.592Z,13.90
2023-04-02T08:29:42.590Z,13.91
2023-04-02T08:30:43.539Z,13.90
2023-04-02T08:31:42.588Z,13.89
2023-04-02T08:32:42.681Z,13.86
2023-04-02T08:33:42.537Z,13.82
2023-04-02T08:34:42.521Z,13.79
2023-04-02T08:35:43.469Z,13.76
2023-04-02T08:36:42.532Z,13.76
2023-04-02T08:37:42.474Z,13.78
2023-04-02T08:38:42.489Z,13.82
2023-04-02T08:39:42.493Z,13.86
2023-04-02T08:40:42.502Z,13.89
2023-04-02T08:41:43.392Z,13.92
2023-04-02T08:42:42.438Z,13.94
2023-04-02T08:43:42.397Z,13.96
2023-04-02T08:44:42.410Z,14.00
2023-04-02T08:45:42.558Z,14.06
2023-04-02T08:46:42.342Z,14.11
2023-04-02T08:47:43.302Z,14.13
2023-04-02T08:48:42.773Z,14.11
2023-04-02T08:49:42.313Z,14.09
2023-04-02T08:50:42.347Z,14.06
2023-04-02T08:51:42.272Z,14.04
2023-04-02T08:52:43.192Z,14.01
2023-04-02T08:53:42.287Z,13.96
2023-04-02T08:54:42.265Z,13.92
2023-04-02T08:55:42.216Z,13.88
2023-04-02T08:56:42.222Z,13.86
2023-04-02T08:57:42.245Z,13.88
2023-04-02T08:58:43.145Z,13.91
2023-04-02T08:59:42.198Z,13.97
2023-04-02T09:00:42.177Z,14.02
2023-04-02T09:01:42.269Z,14.07
2023-04-02T09:02:42.148Z,14.10
2023-04-02T09:03:42.110Z,14.11
2023-04-02T09:04:43.113Z,14.11
2023-04-02T09:05:42.088Z,14.13
2023-04-02T09:06:42.080Z,14.17
2023-04-02T09:07:42.119Z,14.20
2023-04-02T09:08:42.068Z,14.24
2023-04-02T09:09:42.057Z,14.25
2023-04-02T09:10:43.004Z,14.18
2023-04-02T09:11:42.019Z,14.16
2023-04-02T09:12:42.380Z,14.27
2023-04-02T09:13:41.997Z,14.48
2023-04-02T09:14:41.991Z,14.70
2023-04-02T09:15:42.000Z,14.93
2023-04-02T09:16:42.888Z,15.13
2023-04-02T09:17:53.194Z,15.31
2023-04-02T09:18:43.513Z,15.48
2023-04-02T09:19:41.930Z,15.63
2023-04-02T09:20:41.909Z,15.76
2023-04-02T09:21:42.850Z,15.89
2023-04-02T09:22:41.887Z,16.02
2023-04-02T09:23:41.883Z,16.16
2023-04-02T09:24:41.870Z,16.30
2023-04-02T09:25:42.211Z,16.44
2023-04-02T09:26:42.836Z,16.59
2023-04-02T09:27:42.610Z,16.73
2023-04-02T09:28:41.815Z,16.86
2023-04-02T09:29:41.820Z,16.97
2023-04-02T09:30:41.811Z,17.09
2023-04-02T09:31:42.758Z,17.20
2023-04-02T09:32:41.810Z,17.35
2023-04-02T09:33:41.769Z,17.55
2023-04-02T09:34:41.760Z,17.73
2023-04-02T09:35:41.848Z,17.86
2023-04-02T09:36:42.673Z,17.95
2023-04-02T09:37:41.685Z,18.03
2023-04-02T09:38:41.686Z,18.11
2023-04-02T09:39:43.150Z,18.19
2023-04-02T09:40:41.654Z,18.29
2023-04-02T09:41:43.804Z,18.38
2023-04-02T09:42:41.650Z,18.47
2023-04-02T09:43:42.523Z,18.55
2023-04-02T09:44:41.648Z,18.64
2023-04-02T09:45:41.604Z,18.73
2023-04-02T09:46:41.619Z,18.86
2023-04-02T09:47:42.649Z,18.99
2023-04-02T09:48:41.575Z,19.10
2023-04-02T09:49:41.593Z,19.19
2023-04-02T09:50:42.422Z,19.28
2023-04-02T09:51:41.524Z,19.37
2023-04-02T09:52:41.527Z,19.49
2023-04-02T09:53:42.750Z,19.64
2023-04-02T09:54:41.538Z,19.86
2023-04-02T09:55:41.555Z,20.12
2023-04-02T09:56:41.462Z,20.36
2023-04-02T09:57:41.471Z,20.57
2023-04-02T09:58:42.364Z,20.79
2023-04-02T09:59:41.446Z,21.01
2023-04-02T10:00:42.192Z,21.14
2023-04-02T10:01:41.432Z,21.14
2023-04-02T10:02:41.427Z,21.12
2023-04-02T10:03:42.328Z,21.12
2023-04-02T10:04:41.451Z,21.24
2023-04-02T10:05:41.711Z,21.57
2023-04-02T10:06:41.308Z,22.08
2023-04-02T10:07:41.376Z,22.64
2023-04-02T10:08:41.311Z,23.20
2023-04-02T10:09:42.255Z,23.56
2023-04-02T10:10:41.281Z,23.80
2023-04-02T10:12:41.274Z,23.81
2023-04-02T10:13:41.245Z,23.68
2023-04-02T10:14:41.210Z,23.48
2023-04-02T10:15:42.159Z,23.23
2023-04-02T10:16:41.218Z,22.94
2023-04-02T10:17:41.242Z,22.69
2023-04-02T10:18:41.198Z,22.46
2023-04-02T10:19:41.179Z,22.23
2023-04-02T10:20:51.030Z,21.98
2023-04-02T10:21:42.696Z,21.73
2023-04-02T10:22:41.148Z,21.48
2023-04-02T10:23:41.157Z,21.22
2023-04-02T10:24:41.091Z,20.96
2023-04-02T10:25:42.068Z,20.78
2023-04-02T10:26:41.087Z,20.72
2023-04-02T10:27:41.066Z,20.71
2023-04-02T10:28:41.052Z,20.64
2023-04-02T10:29:41.089Z,20.56
2023-04-02T10:30:41.134Z,20.47
2023-04-02T10:31:41.982Z,20.38
2023-04-02T10:32:41.067Z,20.29
2023-04-02T10:33:40.991Z,20.23
2023-04-02T10:34:42.866Z,20.23
2023-04-02T10:35:41.022Z,20.29
2023-04-02T10:36:41.894Z,20.40
2023-04-02T10:37:40.960Z,20.54
2023-04-02T10:38:40.927Z,20.58
2023-04-02T10:39:41.013Z,20.53
2023-04-02T10:40:40.911Z,20.59
2023-04-02T10:41:40.917Z,20.89
2023-04-02T10:42:41.816Z,21.33
2023-04-02T10:43:40.855Z,21.81
2023-04-02T10:44:40.866Z,22.25
2023-04-02T10:45:40.845Z,22.69
2023-04-02T10:46:40.915Z,23.19
2023-04-02T10:47:40.884Z,23.57
2023-04-02T10:48:41.771Z,23.88
2023-04-02T10:49:40.875Z,24.20
2023-04-02T10:50:40.790Z,24.48
2023-04-02T10:51:40.821Z,24.76
2023-04-02T10:52:40.839Z,25.10
2023-04-02T10:53:41.687Z,25.44
2023-04-02T10:54:40.748Z,25.76
2023-04-02T10:55:40.719Z,26.05
2023-04-02T10:56:49.940Z,26.37
2023-04-02T10:57:43.272Z,26.70
2023-04-02T10:58:42.959Z,27.08
2023-04-02T10:59:40.761Z,27.35
2023-04-02T11:00:40.645Z,27.45
2023-04-02T11:01:40.724Z,27.62
2023-04-02T11:02:40.845Z,27.93
2023-04-02T11:03:41.762Z,28.06
2023-04-02T11:05:39.566Z,28.21
2023-04-02T11:06:39.512Z,27.69
2023-04-02T11:07:39.548Z,27.19
2023-04-02T11:08:39.495Z,26.69
2023-04-02T11:09:41.424Z,26.18
2023-04-02T11:10:39.514Z,25.67
2023-04-02T11:11:39.605Z,25.21
2023-04-02T11:12:41.698Z,24.78
2023-04-02T11:13:39.514Z,24.41
2023-04-02T11:14:40.348Z,24.10
2023-04-02T11:15:39.536Z,23.82
2023-04-02T11:16:43.956Z,23.54
2023-04-02T11:17:40.959Z,23.23
2023-04-02T11:18:39.391Z,22.91
2023-04-02T11:19:39.404Z,22.60
2023-04-02T11:20:39.357Z,22.33
2023-04-02T11:21:51.134Z,22.10
2023-04-02T11:22:40.853Z,21.90
2023-04-02T11:23:39.324Z,21.71
2023-04-02T11:24:39.289Z,21.55
2023-04-02T11:25:40.282Z,21.40
2023-04-02T11:26:39.324Z,21.26
2023-04-02T11:27:39.232Z,21.16
2023-04-02T11:28:39.283Z,21.09
2023-04-02T11:29:39.253Z,21.07
2023-04-02T11:30:39.285Z,21.07
2023-04-02T11:31:40.204Z,21.11
2023-04-02T11:32:39.515Z,21.21
2023-04-02T11:33:41.954Z,21.32
2023-04-02T11:34:39.172Z,21.36
2023-04-02T11:35:39.549Z,21.34
2023-04-02T11:36:40.100Z,21.47
2023-04-02T11:37:39.203Z,21.70
2023-04-02T11:38:39.115Z,21.92
2023-04-02T11:39:39.121Z,22.27
2023-04-02T11:40:39.078Z,22.65
2023-04-02T11:41:40.091Z,22.96
2023-04-02T11:42:39.095Z,23.34
2023-04-02T11:43:39.267Z,23.82
2023-04-02T11:44:39.060Z,24.18
2023-04-02T11:45:50.125Z,24.38
2023-04-02T11:46:40.546Z,24.48
2023-04-02T11:47:40.050Z,24.48
2023-04-02T11:48:38.992Z,24.38
2023-04-02T11:49:38.988Z,24.23
2023-04-02T11:50:39.054Z,24.06
2023-04-02T11:51:38.964Z,23.89
2023-04-02T11:52:39.911Z,23.76
2023-04-02T11:53:38.972Z,23.92
2023-04-02T11:54:38.923Z,24.18
2023-04-02T11:55:39.172Z,24.52
2023-04-02T11:56:38.860Z,25.09
2023-04-02T11:57:38.947Z,25.57
2023-04-02T11:58:39.775Z,25.89
2023-04-02T11:59:38.853Z,26.16
2023-04-02T12:00:38.801Z,26.37
2023-04-02T12:01:38.903Z,26.50
2023-04-02T12:02:38.939Z,26.49
2023-04-02T12:03:38.781Z,26.43
2023-04-02T12:04:39.694Z,26.45
2023-04-02T12:05:38.825Z,26.52
2023-04-02T12:06:38.769Z,26.52
2023-04-02T12:07:38.770Z,26.40
2023-04-02T12:08:47.518Z,26.20
2023-04-02T12:09:41.122Z,25.96
2023-04-02T12:10:38.709Z,25.71
2023-04-02T12:11:38.679Z,25.49
2023-04-02T12:12:38.652Z,25.27
2023-04-02T12:13:38.643Z,25.00
2023-04-02T12:14:39.619Z,24.68
2023-04-02T12:15:38.662Z,24.34
2023-04-02T12:16:38.649Z,23.98
2023-04-02T12:17:38.638Z,23.61
2023-04-02T12:18:38.648Z,23.27
2023-04-02T12:19:39.508Z,22.94
2023-04-02T12:20:38.550Z,22.64
2023-04-02T12:21:38.546Z,22.38
2023-04-02T12:22:40.214Z,22.17
2023-04-02T12:23:38.545Z,22.03
2023-04-02T12:24:39.439Z,21.99
2023-04-02T12:25:44.341Z,22.05
2023-04-02T12:26:38.565Z,22.19
2023-04-02T12:27:38.496Z,22.34
2023-04-02T12:28:38.457Z,22.43
2023-04-02T12:29:38.437Z,22.42
2023-04-02T12:30:39.391Z,22.34
2023-04-02T12:31:38.439Z,22.25
2023-04-02T12:32:38.484Z,22.18
2023-04-02T12:33:38.413Z,22.15
2023-04-02T12:34:38.402Z,22.12
2023-04-02T12:35:39.305Z,22.10
2023-04-02T12:36:38.358Z,22.08
2023-04-02T12:37:38.355Z,22.07
2023-04-02T12:38:38.339Z,22.34
2023-04-02T12:39:38.364Z,23.03
2023-04-02T12:40:38.529Z,24.03
2023-04-02T12:41:39.217Z,25.22
2023-04-02T12:42:38.308Z,26.32
2023-04-02T12:43:38.249Z,26.99
2023-04-02T12:44:38.264Z,27.20
2023-04-02T12:45:38.240Z,27.17
2023-04-02T12:46:39.244Z,27.05
2023-04-02T12:47:38.249Z,26.85
2023-04-02T12:48:38.234Z,26.65
2023-04-02T12:49:38.189Z,26.46
2023-04-02T12:50:38.481Z,26.29
2023-04-02T12:51:38.176Z,26.08
2023-04-02T12:52:39.061Z,25.82
2023-04-02T12:53:38.140Z,25.47
2023-04-02T12:54:38.133Z,25.06
2023-04-02T12:55:38.097Z,24.64
2023-04-02T12:56:38.085Z,24.22
2023-04-02T12:57:38.151Z,23.83
2023-04-02T12:58:39.020Z,23.47
2023-04-02T12:59:38.049Z,23.15
2023-04-02T13:00:38.243Z,22.87
2023-04-02T13:01:38.077Z,22.61
2023-04-02T13:02:38.062Z,22.35
2023-04-02T13:03:38.991Z,22.47
2023-04-02T13:04:38.004Z,23.06
2023-04-02T13:05:37.967Z,23.86
2023-04-02T13:06:37.958Z,24.74
2023-04-02T13:07:37.969Z,25.66